sensor_id;sensor_type;location;lat;lon;timestamp;pressure;altitude;pressure_sealevel;temperature;humidity
48790;BME280;41718;51.980;5.734;2023-04-25T00:03:24;100813.72;;;4.79;100.00
48790;BME280;41718;51.980;5.734;2023-04-25T00:08:26;100818.63;;;4.73;100.00
48790;BME280;41718;51.980;5.734;2023-04-25T00:13:28;100820.00;;;4.65;100.00
48790;BME280;41718;51.980;5.734;2023-04-25T00:18:29;100827.41;;;4.57;100.00
48790;BME280;41718;51.980;5.734;2023-04-25T00:23:31;100825.03;;;4.62;100.00
48790;BME280;41718;51.980;5.734;2023-04-25T00:28:32;100830.53;;;4.50;100.00
48790;BME280;41718;51.980;5.734;2023-04-25T00:33:34;100830.59;;;4.51;100.00
48790;BME280;41718;51.980;5.734;2023-04-25T00:38:36;100839.19;;;4.31;100.00
48790;BME280;41718;51.980;5.734;2023-04-25T00:43:40;100832.25;;;4.29;100.00
48790;BME280;41718;51.980;5.734;2023-04-25T00:48:41;100844.63;;;4.18;100.00
48790;BME280;41718;51.980;5.734;2023-04-25T00:53:44;100838.63;;;4.17;100.00
48790;BME280;41718;51.980;5.734;2023-04-25T00:58:46;100828.00;;;4.08;100.00
48790;BME280;41718;51.980;5.734;2023-04-25T01:03:49;100827.59;;;3.97;100.00
48790;BME280;41718;51.980;5.734;2023-04-25T01:08:51;100838.63;;;3.96;100.00
48790;BME280;41718;51.980;5.734;2023-04-25T01:13:53;100831.81;;;3.97;100.00
48790;BME280;41718;51.980;5.734;2023-04-25T01:18:55;100840.69;;;4.05;100.00
48790;BME280;41718;51.980;5.734;2023-04-25T01:23:57;100837.28;;;4.05;100.00
48790;BME280;41718;51.980;5.734;2023-04-25T01:28:59;100841.56;;;4.06;100.00
48790;BME280;41718;51.980;5.734;2023-04-25T01:34:00;100845.19;;;4.11;100.00
48790;BME280;41718;51.980;5.734;2023-04-25T01:39:02;100839.16;;;4.09;100.00
48790;BME280;41718;51.980;5.734;2023-04-25T01:44:04;100840.06;;;4.11;100.00
48790;BME280;41718;51.980;5.734;2023-04-25T01:49:05;100849.44;;;4.10;100.00
48790;BME280;41718;51.980;5.734;2023-04-25T01:54:08;100855.63;;;4.15;100.00
48790;BME280;41718;51.980;5.734;2023-04-25T01:59:10;100866.72;;;4.16;100.00
48790;BME280;41718;51.980;5.734;2023-04-25T02:04:12;100866.34;;;4.07;100.00
48790;BME280;41718;51.980;5.734;2023-04-25T02:09:14;100873.22;;;4.08;100.00
48790;BME280;41718;51.980;5.734;2023-04-25T02:14:15;100874.69;;;4.03;100.00
48790;BME280;41718;51.980;5.734;2023-04-25T02:19:17;100873.16;;;4.06;100.00
48790;BME280;41718;51.980;5.734;2023-04-25T02:24:18;100875.31;;;3.97;100.00
48790;BME280;41718;51.980;5.734;2023-04-25T02:29:20;100877.72;;;3.92;100.00
48790;BME280;41718;51.980;5.734;2023-04-25T02:34:22;100882.56;;;3.86;100.00
48790;BME280;41718;51.980;5.734;2023-04-25T02:39:23;100883.25;;;3.82;100.00
48790;BME280;41718;51.980;5.734;2023-04-25T02:44:26;100895.91;;;3.79;100.00
48790;BME280;41718;51.980;5.734;2023-04-25T02:49:27;100889.53;;;3.69;100.00
48790;BME280;41718;51.980;5.734;2023-04-25T02:54:30;100890.91;;;3.63;100.00
48790;BME280;41718;51.980;5.734;2023-04-25T02:59:31;100898.06;;;3.51;100.00
48790;BME280;41718;51.980;5.734;2023-04-25T03:04:33;100894.56;;;3.49;100.00
48790;BME280;41718;51.980;5.734;2023-04-25T03:09:35;100899.22;;;3.38;100.00
48790;BME280;41718;51.980;5.734;2023-04-25T03:14:36;100902.09;;;3.26;100.00
48790;BME280;41718;51.980;5.734;2023-04-25T03:19:38;100906.34;;;3.26;100.00
48790;BME280;41718;51.980;5.734;2023-04-25T03:24:39;100904.50;;;3.23;100.00
48790;BME280;41718;51.980;5.734;2023-04-25T03:29:41;100907.66;;;3.17;100.00
48790;BME280;41718;51.980;5.734;2023-04-25T03:34:42;100909.50;;;3.20;100.00
48790;BME280;41718;51.980;5.734;2023-04-25T03:39:44;100920.38;;;3.16;100.00
48790;BME280;41718;51.980;5.734;2023-04-25T03:44:45;100916.50;;;3.24;100.00
48790;BME280;41718;51.980;5.734;2023-04-25T03:49:47;100922.34;;;3.22;100.00
48790;BME280;41718;51.980;5.734;2023-04-25T03:54:50;100914.66;;;3.22;100.00
48790;BME280;41718;51.980;5.734;2023-04-25T03:59:51;100933.53;;;3.06;100.00
48790;BME280;41718;51.980;5.734;2023-04-25T04:04:53;100931.22;;;2.92;100.00
48790;BME280;41718;51.980;5.734;2023-04-25T04:09:55;100937.59;;;3.01;100.00
48790;BME280;41718;51.980;5.734;2023-04-25T04:14:56;100937.34;;;2.96;100.00
48790;BME280;41718;51.980;5.734;2023-04-25T04:19:58;100943.28;;;2.95;100.00
48790;BME280;41718;51.980;5.734;2023-04-25T04:24:59;100944.94;;;2.95;100.00
48790;BME280;41718;51.980;5.734;2023-04-25T04:30:01;100948.50;;;2.98;100.00
48790;BME280;41718;51.980;5.734;2023-04-25T04:35:04;100956.34;;;3.01;100.00
48790;BME280;41718;51.980;5.734;2023-04-25T04:40:08;100956.69;;;3.09;100.00
48790;BME280;41718;51.980;5.734;2023-04-25T04:45:10;100963.75;;;3.14;100.00
48790;BME280;41718;51.980;5.734;2023-04-25T04:50:12;100970.97;;;3.23;100.00
48790;BME280;41718;51.980;5.734;2023-04-25T04:55:14;100972.88;;;3.27;100.00
48790;BME280;41718;51.980;5.734;2023-04-25T05:00:16;100978.47;;;3.38;100.00
48790;BME280;41718;51.980;5.734;2023-04-25T05:05:17;100987.84;;;3.57;100.00
48790;BME280;41718;51.980;5.734;2023-04-25T05:10:19;100978.91;;;3.66;100.00
48790;BME280;41718;51.980;5.734;2023-04-25T05:15:21;100993.66;;;3.72;100.00
48790;BME280;41718;51.980;5.734;2023-04-25T05:20:23;101005.84;;;3.78;100.00
48790;BME280;41718;51.980;5.734;2023-04-25T05:25:24;101009.63;;;3.86;100.00
48790;BME280;41718;51.980;5.734;2023-04-25T05:30:26;101015.19;;;3.96;100.00
48790;BME280;41718;51.980;5.734;2023-04-25T05:35:27;101028.63;;;4.10;100.00
48790;BME280;41718;51.980;5.734;2023-04-25T05:40:29;101022.41;;;4.24;100.00
48790;BME280;41718;51.980;5.734;2023-04-25T05:45:30;101026.13;;;4.31;100.00
48790;BME280;41718;51.980;5.734;2023-04-25T05:50:31;101036.63;;;4.37;100.00
48790;BME280;41718;51.980;5.734;2023-04-25T05:55:33;101043.50;;;4.59;100.00
48790;BME280;41718;51.980;5.734;2023-04-25T06:00:34;101043.34;;;4.75;100.00
48790;BME280;41718;51.980;5.734;2023-04-25T06:05:36;101063.69;;;4.71;100.00
48790;BME280;41718;51.980;5.734;2023-04-25T06:10:38;101063.66;;;4.92;100.00
48790;BME280;41718;51.980;5.734;2023-04-25T06:15:39;101067.34;;;5.19;100.00
48790;BME280;41718;51.980;5.734;2023-04-25T06:20:40;101068.91;;;5.37;100.00
48790;BME280;41718;51.980;5.734;2023-04-25T06:25:42;101061.47;;;5.44;100.00
48790;BME280;41718;51.980;5.734;2023-04-25T06:30:43;101061.44;;;5.43;100.00
48790;BME280;41718;51.980;5.734;2023-04-25T06:35:45;101060.28;;;5.57;100.00
48790;BME280;41718;51.980;5.734;2023-04-25T06:40:46;101058.41;;;5.53;100.00
48790;BME280;41718;51.980;5.734;2023-04-25T06:45:48;101063.38;;;5.48;100.00
48790;BME280;41718;51.980;5.734;2023-04-25T06:50:50;101065.13;;;5.72;100.00
48790;BME280;41718;51.980;5.734;2023-04-25T06:55:51;101065.13;;;5.94;100.00
48790;BME280;41718;51.980;5.734;2023-04-25T07:00:53;101075.53;;;5.97;100.00
48790;BME280;41718;51.980;5.734;2023-04-25T07:05:54;101076.91;;;6.11;100.00
48790;BME280;41718;51.980;5.734;2023-04-25T07:10:56;101081.72;;;6.26;100.00
48790;BME280;41718;51.980;5.734;2023-04-25T07:15:59;101090.56;;;6.34;100.00
48790;BME280;41718;51.980;5.734;2023-04-25T07:21:01;101089.53;;;6.29;100.00
48790;BME280;41718;51.980;5.734;2023-04-25T07:26:02;101086.72;;;6.71;100.00
48790;BME280;41718;51.980;5.734;2023-04-25T07:31:04;101084.97;;;7.21;100.00
48790;BME280;41718;51.980;5.734;2023-04-25T07:36:06;101098.06;;;7.03;100.00
48790;BME280;41718;51.980;5.734;2023-04-25T07:41:08;101089.63;;;7.33;100.00
48790;BME280;41718;51.980;5.734;2023-04-25T07:46:09;101100.44;;;7.23;100.00
48790;BME280;41718;51.980;5.734;2023-04-25T07:51:11;101112.59;;;7.01;100.00
48790;BME280;41718;51.980;5.734;2023-04-25T07:56:13;101120.03;;;7.19;100.00
48790;BME280;41718;51.980;5.734;2023-04-25T08:01:14;101124.97;;;7.94;100.00
48790;BME280;41718;51.980;5.734;2023-04-25T08:06:16;101128.19;;;7.87;100.00
48790;BME280;41718;51.980;5.734;2023-04-25T08:11:17;101130.63;;;8.11;100.00
48790;BME280;41718;51.980;5.734;2023-04-25T08:16:19;101129.69;;;8.07;100.00
48790;BME280;41718;51.980;5.734;2023-04-25T08:21:20;101135.19;;;7.62;100.00
48790;BME280;41718;51.980;5.734;2023-04-25T08:26:22;101140.03;;;7.53;100.00
48790;BME280;41718;51.980;5.734;2023-04-25T08:31:23;101154.31;;;7.70;100.00
48790;BME280;41718;51.980;5.734;2023-04-25T08:36:25;101154.56;;;7.78;100.00
48790;BME280;41718;51.980;5.734;2023-04-25T08:41:40;101170.84;;;7.77;100.00
48790;BME280;41718;51.980;5.734;2023-04-25T08:46:42;101175.50;;;7.62;100.00
48790;BME280;41718;51.980;5.734;2023-04-25T08:51:47;101177.41;;;8.23;100.00
48790;BME280;41718;51.980;5.734;2023-04-25T08:56:49;101193.38;;;8.40;100.00
48790;BME280;41718;51.980;5.734;2023-04-25T09:01:50;101199.72;;;8.51;100.00
48790;BME280;41718;51.980;5.734;2023-04-25T09:06:52;101223.03;;;7.72;100.00
48790;BME280;41718;51.980;5.734;2023-04-25T09:11:54;101243.13;;;7.07;100.00
48790;BME280;41718;51.980;5.734;2023-04-25T09:22:00;101254.84;;;6.99;100.00
48790;BME280;41718;51.980;5.734;2023-04-25T09:27:09;101262.00;;;6.83;100.00
48790;BME280;41718;51.980;5.734;2023-04-25T09:32:22;101261.25;;;7.10;100.00
48790;BME280;41718;51.980;5.734;2023-04-25T09:37:29;101257.94;;;7.63;100.00
48790;BME280;41718;51.980;5.734;2023-04-25T09:42:31;101260.47;;;9.01;100.00
48790;BME280;41718;51.980;5.734;2023-04-25T09:47:37;101262.88;;;8.95;100.00
48790;BME280;41718;51.980;5.734;2023-04-25T09:52:39;101252.53;;;9.25;100.00
48790;BME280;41718;51.980;5.734;2023-04-25T09:57:41;101256.56;;;9.47;100.00
48790;BME280;41718;51.980;5.734;2023-04-25T10:02:46;101259.88;;;9.76;100.00
48790;BME280;41718;51.980;5.734;2023-04-25T10:07:56;101261.50;;;9.40;100.00
48790;BME280;41718;51.980;5.734;2023-04-25T10:12:58;101273.97;;;9.89;100.00
48790;BME280;41718;51.980;5.734;2023-04-25T10:18:01;101288.78;;;9.30;100.00
48790;BME280;41718;51.980;5.734;2023-04-25T10:23:13;101273.97;;;9.56;100.00
48790;BME280;41718;51.980;5.734;2023-04-25T10:28:15;101297.69;;;9.10;100.00
48790;BME280;41718;51.980;5.734;2023-04-25T10:33:18;101286.03;;;9.55;100.00
48790;BME280;41718;51.980;5.734;2023-04-25T10:38:36;101303.75;;;9.12;100.00
48790;BME280;41718;51.980;5.734;2023-04-25T10:43:44;101311.53;;;8.83;100.00
48790;BME280;41718;51.980;5.734;2023-04-25T10:48:51;101314.59;;;9.30;100.00
48790;BME280;41718;51.980;5.734;2023-04-25T10:59:11;101316.06;;;9.52;100.00
48790;BME280;41718;51.980;5.734;2023-04-25T11:04:30;101307.44;;;10.21;100.00
48790;BME280;41718;51.980;5.734;2023-04-25T11:09:38;101304.63;;;10.10;100.00
48790;BME280;41718;51.980;5.734;2023-04-25T11:14:43;101326.47;;;9.55;100.00
48790;BME280;41718;51.980;5.734;2023-04-25T11:19:48;101316.94;;;9.86;100.00
48790;BME280;41718;51.980;5.734;2023-04-25T11:24:51;101317.41;;;10.39;100.00
48790;BME280;41718;51.980;5.734;2023-04-25T11:29:55;101314.69;;;10.72;100.00
48790;BME280;41718;51.980;5.734;2023-04-25T11:34:58;101331.25;;;10.42;100.00
48790;BME280;41718;51.980;5.734;2023-04-25T11:40:06;101325.34;;;10.48;100.00
48790;BME280;41718;51.980;5.734;2023-04-25T11:45:08;101336.63;;;10.89;100.00
48790;BME280;41718;51.980;5.734;2023-04-25T11:50:09;101349.97;;;11.51;100.00
48790;BME280;41718;51.980;5.734;2023-04-25T11:55:19;101365.59;;;10.35;100.00
48790;BME280;41718;51.980;5.734;2023-04-25T12:00:21;101395.72;;;9.08;100.00
48790;BME280;41718;51.980;5.734;2023-04-25T12:05:29;101410.13;;;8.73;100.00
48790;BME280;41718;51.980;5.734;2023-04-25T12:10:39;101421.16;;;8.42;100.00
48790;BME280;41718;51.980;5.734;2023-04-25T12:16:02;101427.53;;;8.53;100.00
48790;BME280;41718;51.980;5.734;2023-04-25T12:21:13;101421.50;;;8.27;100.00
48790;BME280;41718;51.980;5.734;2023-04-25T12:26:18;101427.25;;;8.71;100.00
48790;BME280;41718;51.980;5.734;2023-04-25T12:31:25;101418.31;;;8.60;100.00
48790;BME280;41718;51.980;5.734;2023-04-25T12:36:30;101415.66;;;8.57;100.00
48790;BME280;41718;51.980;5.734;2023-04-25T12:41:32;101411.28;;;9.11;100.00
48790;BME280;41718;51.980;5.734;2023-04-25T12:46:43;101416.94;;;10.21;100.00
48790;BME280;41718;51.980;5.734;2023-04-25T12:51:46;101412.38;;;10.11;100.00
48790;BME280;41718;51.980;5.734;2023-04-25T12:56:53;101431.63;;;9.59;100.00
48790;BME280;41718;51.980;5.734;2023-04-25T13:01:56;101421.97;;;9.83;100.00
48790;BME280;41718;51.980;5.734;2023-04-25T13:07:00;101434.38;;;9.35;100.00
48790;BME280;41718;51.980;5.734;2023-04-25T13:12:05;101427.84;;;9.18;100.00
48790;BME280;41718;51.980;5.734;2023-04-25T13:17:08;101418.66;;;9.88;100.00
48790;BME280;41718;51.980;5.734;2023-04-25T13:22:11;101432.34;;;9.85;100.00
48790;BME280;41718;51.980;5.734;2023-04-25T13:27:13;101420.00;;;10.38;100.00
48790;BME280;41718;51.980;5.734;2023-04-25T13:32:15;101417.31;;;10.03;100.00
48790;BME280;41718;51.980;5.734;2023-04-25T13:37:17;101427.09;;;10.15;100.00
48790;BME280;41718;51.980;5.734;2023-04-25T13:42:23;101415.88;;;10.46;100.00
48790;BME280;41718;51.980;5.734;2023-04-25T13:47:26;101415.09;;;11.26;100.00
48790;BME280;41718;51.980;5.734;2023-04-25T13:52:29;101405.41;;;10.78;100.00
48790;BME280;41718;51.980;5.734;2023-04-25T13:57:31;101422.41;;;9.99;100.00
48790;BME280;41718;51.980;5.734;2023-04-25T14:02:35;101426.63;;;10.63;100.00
48790;BME280;41718;51.980;5.734;2023-04-25T14:07:38;101466.31;;;9.67;100.00
48790;BME280;41718;51.980;5.734;2023-04-25T14:12:42;101470.84;;;9.17;100.00
48790;BME280;41718;51.980;5.734;2023-04-25T14:17:44;101480.72;;;9.02;100.00
48790;BME280;41718;51.980;5.734;2023-04-25T14:22:49;101460.16;;;9.64;100.00
48790;BME280;41718;51.980;5.734;2023-04-25T14:27:52;101463.06;;;9.74;100.00
48790;BME280;41718;51.980;5.734;2023-04-25T14:32:53;101458.44;;;9.64;100.00
48790;BME280;41718;51.980;5.734;2023-04-25T14:37:56;101449.06;;;10.29;100.00
48790;BME280;41718;51.980;5.734;2023-04-25T14:42:58;101452.72;;;10.06;100.00
48790;BME280;41718;51.980;5.734;2023-04-25T14:48:01;101466.00;;;9.56;100.00
48790;BME280;41718;51.980;5.734;2023-04-25T14:53:06;101476.13;;;9.20;100.00
48790;BME280;41718;51.980;5.734;2023-04-25T14:58:08;101468.84;;;9.97;100.00
48790;BME280;41718;51.980;5.734;2023-04-25T15:03:10;101457.56;;;9.94;100.00
48790;BME280;41718;51.980;5.734;2023-04-25T15:08:14;101460.38;;;10.03;100.00
48790;BME280;41718;51.980;5.734;2023-04-25T15:13:18;101451.59;;;9.65;100.00
48790;BME280;41718;51.980;5.734;2023-04-25T15:18:22;101467.75;;;9.29;100.00
48790;BME280;41718;51.980;5.734;2023-04-25T15:23:25;101486.81;;;8.79;100.00
48790;BME280;41718;51.980;5.734;2023-04-25T15:28:31;101494.94;;;8.64;100.00
48790;BME280;41718;51.980;5.734;2023-04-25T15:33:35;101500.72;;;8.82;100.00
48790;BME280;41718;51.980;5.734;2023-04-25T15:38:36;101501.97;;;9.22;100.00
48790;BME280;41718;51.980;5.734;2023-04-25T15:43:38;101499.50;;;9.25;100.00
48790;BME280;41718;51.980;5.734;2023-04-25T15:48:40;101499.19;;;9.43;100.00
48790;BME280;41718;51.980;5.734;2023-04-25T15:53:42;101508.53;;;9.39;100.00
48790;BME280;41718;51.980;5.734;2023-04-25T15:58:43;101506.44;;;9.00;100.00
48790;BME280;41718;51.980;5.734;2023-04-25T16:03:45;101513.09;;;8.67;100.00
48790;BME280;41718;51.980;5.734;2023-04-25T16:08:46;101518.41;;;8.71;100.00
48790;BME280;41718;51.980;5.734;2023-04-25T16:13:48;101531.75;;;8.34;100.00
48790;BME280;41718;51.980;5.734;2023-04-25T16:18:50;101529.97;;;8.09;100.00
48790;BME280;41718;51.980;5.734;2023-04-25T16:23:52;101536.25;;;8.40;100.00
48790;BME280;41718;51.980;5.734;2023-04-25T16:28:53;101528.75;;;8.46;100.00
48790;BME280;41718;51.980;5.734;2023-04-25T16:33:55;101536.25;;;8.40;100.00
48790;BME280;41718;51.980;5.734;2023-04-25T16:38:57;101531.81;;;8.61;100.00
48790;BME280;41718;51.980;5.734;2023-04-25T16:43:59;101537.25;;;8.69;100.00
48790;BME280;41718;51.980;5.734;2023-04-25T16:49:01;101544.69;;;8.85;100.00
48790;BME280;41718;51.980;5.734;2023-04-25T16:54:02;101553.13;;;8.81;100.00
48790;BME280;41718;51.980;5.734;2023-04-25T16:59:04;101558.00;;;8.24;100.00
48790;BME280;41718;51.980;5.734;2023-04-25T17:04:05;101560.75;;;7.82;100.00
48790;BME280;41718;51.980;5.734;2023-04-25T17:09:07;101564.69;;;7.73;100.00
48790;BME280;41718;51.980;5.734;2023-04-25T17:14:10;101566.44;;;7.74;100.00
48790;BME280;41718;51.980;5.734;2023-04-25T17:19:12;101567.97;;;7.68;100.00
48790;BME280;41718;51.980;5.734;2023-04-25T17:24:20;101572.53;;;7.76;100.00
48790;BME280;41718;51.980;5.734;2023-04-25T17:29:22;101570.19;;;7.82;100.00
48790;BME280;41718;51.980;5.734;2023-04-25T17:34:27;101580.19;;;7.74;100.00
48790;BME280;41718;51.980;5.734;2023-04-25T17:39:29;101590.69;;;7.79;100.00
48790;BME280;41718;51.980;5.734;2023-04-25T17:44:31;101575.38;;;8.06;100.00
48790;BME280;41718;51.980;5.734;2023-04-25T17:49:32;101569.19;;;8.24;100.00
48790;BME280;41718;51.980;5.734;2023-04-25T17:54:34;101577.44;;;7.92;100.00
48790;BME280;41718;51.980;5.734;2023-04-25T17:59:35;101577.75;;;7.77;100.00
48790;BME280;41718;51.980;5.734;2023-04-25T18:04:37;101584.53;;;7.53;100.00
48790;BME280;41718;51.980;5.734;2023-04-25T18:09:38;101596.22;;;7.24;100.00
48790;BME280;41718;51.980;5.734;2023-04-25T18:14:40;101596.13;;;7.21;100.00
48790;BME280;41718;51.980;5.734;2023-04-25T18:19:41;101608.47;;;7.08;100.00
48790;BME280;41718;51.980;5.734;2023-04-25T18:24:43;101610.78;;;7.02;100.00
48790;BME280;41718;51.980;5.734;2023-04-25T18:29:47;101614.59;;;6.91;100.00
48790;BME280;41718;51.980;5.734;2023-04-25T18:34:49;101620.19;;;6.81;100.00
48790;BME280;41718;51.980;5.734;2023-04-25T18:39:51;101616.75;;;6.61;100.00
48790;BME280;41718;51.980;5.734;2023-04-25T18:44:54;101624.47;;;6.61;100.00
48790;BME280;41718;51.980;5.734;2023-04-25T18:49:56;101643.09;;;6.36;100.00
48790;BME280;41718;51.980;5.734;2023-04-25T18:54:58;101637.03;;;6.16;100.00
48790;BME280;41718;51.980;5.734;2023-04-25T18:59:59;101635.22;;;6.14;100.00
48790;BME280;41718;51.980;5.734;2023-04-25T19:05:07;101649.59;;;6.10;100.00
48790;BME280;41718;51.980;5.734;2023-04-25T19:10:11;101649.44;;;5.89;100.00
48790;BME280;41718;51.980;5.734;2023-04-25T19:15:13;101653.03;;;5.91;100.00
48790;BME280;41718;51.980;5.734;2023-04-25T19:20:14;101651.09;;;5.69;100.00
48790;BME280;41718;51.980;5.734;2023-04-25T19:25:21;101646.59;;;5.65;100.00
48790;BME280;41718;51.980;5.734;2023-04-25T19:30:26;101656.34;;;5.54;100.00
48790;BME280;41718;51.980;5.734;2023-04-25T19:35:32;101655.13;;;5.46;100.00
48790;BME280;41718;51.980;5.734;2023-04-25T19:40:35;101655.31;;;5.33;100.00
48790;BME280;41718;51.980;5.734;2023-04-25T19:45:37;101654.66;;;5.19;100.00
48790;BME280;41718;51.980;5.734;2023-04-25T19:50:40;101658.72;;;5.16;100.00
48790;BME280;41718;51.980;5.734;2023-04-25T19:55:41;101659.56;;;4.98;100.00
48790;BME280;41718;51.980;5.734;2023-04-25T20:00:44;101667.13;;;4.95;100.00
48790;BME280;41718;51.980;5.734;2023-04-25T20:05:46;101662.75;;;4.76;100.00
48790;BME280;41718;51.980;5.734;2023-04-25T20:10:48;101667.56;;;4.54;100.00
48790;BME280;41718;51.980;5.734;2023-04-25T20:15:49;101667.13;;;4.46;100.00
48790;BME280;41718;51.980;5.734;2023-04-25T20:20:53;101662.34;;;4.20;100.00
48790;BME280;41718;51.980;5.734;2023-04-25T20:25:54;101671.78;;;4.21;100.00
48790;BME280;41718;51.980;5.734;2023-04-25T20:30:56;101668.81;;;4.30;100.00
48790;BME280;41718;51.980;5.734;2023-04-25T20:36:08;101667.59;;;4.23;100.00
48790;BME280;41718;51.980;5.734;2023-04-25T20:41:18;101660.41;;;4.16;100.00
48790;BME280;41718;51.980;5.734;2023-04-25T20:46:23;101657.84;;;4.16;100.00
48790;BME280;41718;51.980;5.734;2023-04-25T20:51:26;101662.31;;;4.04;100.00
48790;BME280;41718;51.980;5.734;2023-04-25T20:56:28;101670.00;;;4.04;100.00
48790;BME280;41718;51.980;5.734;2023-04-25T21:01:33;101669.53;;;3.96;100.00
48790;BME280;41718;51.980;5.734;2023-04-25T21:06:36;101672.91;;;3.95;100.00
48790;BME280;41718;51.980;5.734;2023-04-25T21:11:39;101677.00;;;3.91;100.00
48790;BME280;41718;51.980;5.734;2023-04-25T21:16:40;101673.66;;;3.78;100.00
48790;BME280;41718;51.980;5.734;2023-04-25T21:21:43;101667.88;;;3.65;100.00
48790;BME280;41718;51.980;5.734;2023-04-25T21:26:44;101670.16;;;3.61;100.00
48790;BME280;41718;51.980;5.734;2023-04-25T21:31:46;101667.03;;;3.35;100.00
48790;BME280;41718;51.980;5.734;2023-04-25T21:36:49;101671.41;;;3.38;100.00
48790;BME280;41718;51.980;5.734;2023-04-25T21:41:54;101678.66;;;3.30;100.00
48790;BME280;41718;51.980;5.734;2023-04-25T21:46:56;101678.13;;;3.21;100.00
48790;BME280;41718;51.980;5.734;2023-04-25T21:51:57;101675.72;;;3.09;100.00
48790;BME280;41718;51.980;5.734;2023-04-25T21:57:00;101678.38;;;2.96;100.00
48790;BME280;41718;51.980;5.734;2023-04-25T22:02:01;101681.78;;;2.82;100.00
48790;BME280;41718;51.980;5.734;2023-04-25T22:07:04;101681.84;;;2.83;100.00
48790;BME280;41718;51.980;5.734;2023-04-25T22:12:09;101677.75;;;3.00;100.00
48790;BME280;41718;51.980;5.734;2023-04-25T22:17:13;101687.03;;;2.70;100.00
48790;BME280;41718;51.980;5.734;2023-04-25T22:22:16;101693.75;;;2.83;100.00
48790;BME280;41718;51.980;5.734;2023-04-25T22:27:17;101693.31;;;2.75;100.00
48790;BME280;41718;51.980;5.734;2023-04-25T22:32:19;101699.34;;;2.62;100.00
48790;BME280;41718;51.980;5.734;2023-04-25T22:37:20;101705.25;;;2.61;100.00
48790;BME280;41718;51.980;5.734;2023-04-25T22:42:22;101707.59;;;2.30;100.00
48790;BME280;41718;51.980;5.734;2023-04-25T22:47:24;101710.09;;;2.16;100.00
48790;BME280;41718;51.980;5.734;2023-04-25T22:52:25;101711.41;;;2.37;100.00
48790;BME280;41718;51.980;5.734;2023-04-25T22:57:28;101704.44;;;2.34;100.00
48790;BME280;41718;51.980;5.734;2023-04-25T23:02:29;101702.81;;;2.22;100.00
48790;BME280;41718;51.980;5.734;2023-04-25T23:07:31;101708.00;;;2.23;100.00
48790;BME280;41718;51.980;5.734;2023-04-25T23:12:34;101721.59;;;1.82;100.00
48790;BME280;41718;51.980;5.734;2023-04-25T23:17:35;101717.47;;;1.84;100.00
48790;BME280;41718;51.980;5.734;2023-04-25T23:22:37;101718.06;;;1.67;100.00
48790;BME280;41718;51.980;5.734;2023-04-25T23:27:39;101726.44;;;1.53;100.00
48790;BME280;41718;51.980;5.734;2023-04-25T23:32:41;101720.38;;;1.51;100.00
48790;BME280;41718;51.980;5.734;2023-04-25T23:37:42;101721.97;;;1.62;100.00
48790;BME280;41718;51.980;5.734;2023-04-25T23:42:44;101715.91;;;1.60;100.00
48790;BME280;41718;51.980;5.734;2023-04-25T23:47:45;101712.81;;;1.52;100.00
48790;BME280;41718;51.980;5.734;2023-04-25T23:52:47;101710.56;;;1.44;100.00
48790;BME280;41718;51.980;5.734;2023-04-25T23:57:48;101714.19;;;1.34;100.00
